Airfield :







YOU CAN JOIN US ON...

 
LOGIN :

Register | Disclaimer

   EN    FR    IT 

 









Legend :    VFR   Marginal VFR   IFR   Intensive IFR   Very Intensive IFR
Visi :
Ceiling :
>= 8 km
>= 3000ft
5 to 8 km
1000 to 3000 ft
1500m to 5 km
500 to 1000 ft
800 to 1500m
200 to 500 ft
< 800m
< 200 ft
Symbols :   Thunderstorms  Fog  Heavy snow  Heavy precipitations  Wind > 20 kt






- Airport Elevation : 39 ft
- IATA code : YNA


CYNA - Natashquan

CURRENT METAR :
  • 110229Z AUTO 26014G20KT 9SM FEW017 SCT024 BKN030 OVC034 04/02 A2944 RMK PRESRR SLP971

EXPIRED METARs :
  • 110200Z AUTO 24015G21KT 9SM BKN024 BKN034 OVC043 04/03 A2941 RMK SLP961
  • 110150Z AUTO 24015G21KT 9SM BKN024 OVC037 04/03 A2940 RMK SLP958
  • 110100Z AUTO 22011KT 9SM SCT033 04/03 A2938 RMK SLP952
  • 110000Z AUTO 22014G20KT 9SM BKN070 BKN080 05/04 A2937 RMK SLP947

TAF AMD TAF CYNA
Valid from the 11 at 02:00 until the 11 at 14:00 UTC


110208Z 1102/1114 24015G25KT P6SM SCT030 BKN060
TEMPO 1102/1106 BKN020 BKN060
BECMG 1103/1105 26020G35KT
FM110800 30020G30KT P6SM BKN220
BECMG 1111/1113 30012G22KT RMK FCST BASED ON AUTO OBS. NXT FCST BY 110800Z



MET'MAP, your aeronautical weather chart ! - Copyright ORBIFLY December 2007 - Disclaimer

ORBIFLY MET'MAP TEAM :

Programming & Development : Alexandra Zaïnal
Concept & original design : Baudouin d'Aumeries
Assistance for programming : Marc-Olivier Méhu
Technical & hardware support : Manuel Goepfert

Contact : metmap@orbifly.com




SOURCES & CREDITS :

   NOAA